Time;durP1;ratioP1;P1;durP2;ratioP2;P2;SDS_P1;SDS_P2;PMS_P1;PMS_P2;Temp;Humidity;BMP_temperature;BMP_pressure;BME280_temperature;BME280_humidity;BME280_pressure;Samples;Min_cycle;Max_cycle;Signal;HPM_P1;HPM_P2
2022/01/16 00:05:17;;;;;;;19.20;6.78;;;;;;;4.11;47.80;101657.91;5005958;28;20506;-80
2022/01/16 00:07:44;;;;;;;15.88;6.60;;;;;;;3.98;47.88;101646.00;5023529;28;20021;-80
2022/01/16 00:10:10;;;;;;;18.85;6.80;;;;;;;4.11;47.72;101675.69;5060155;28;20033;-80
2022/01/16 00:12:36;;;;;;;20.85;7.15;;;;;;;4.07;47.98;101671.38;5045884;28;20084;-81
2022/01/16 00:15:03;;;;;;;17.60;8.30;;;;;;;4.10;47.96;101666.81;5039409;28;20033;-80
2022/01/16 00:17:34;;;;;;;22.10;7.95;;;;;;;4.14;47.79;101667.56;5021741;28;20059;-80
2022/01/16 00:19:59;;;;;;;22.02;7.35;;;;;;;4.07;47.83;101680.25;5039562;28;20053;-80
2022/01/16 00:22:28;;;;;;;18.92;7.57;;;;;;;4.07;48.20;101682.91;5039141;28;20470;-80
2022/01/16 00:24:55;;;;;;;18.15;7.43;;;;;;;4.05;48.12;101674.13;5021441;28;20104;-80
2022/01/16 00:27:20;;;;;;;17.23;7.32;;;;;;;3.99;48.20;101692.97;5038911;28;20111;-80
2022/01/16 00:29:46;;;;;;;16.63;7.45;;;;;;;3.88;48.06;101703.16;5022195;28;20030;-80
2022/01/16 00:32:11;;;;;;;19.88;7.72;;;;;;;3.94;47.91;101710.94;5021136;28;20025;-80
2022/01/16 00:34:36;;;;;;;15.18;7.90;;;;;;;3.82;48.23;101703.41;5039006;28;20034;-80
2022/01/16 00:37:02;;;;;;;14.50;6.45;;;;;;;3.77;48.39;101705.34;5020865;28;20021;-80
2022/01/16 00:39:28;;;;;;;15.50;6.65;;;;;;;3.85;48.52;101732.56;5039511;28;20029;-80
2022/01/16 00:41:54;;;;;;;17.85;6.90;;;;;;;3.86;48.50;101758.22;5020999;28;20511;-79
2022/01/16 00:44:21;;;;;;;12.50;6.65;;;;;;;3.82;48.54;101789.38;5022637;28;20025;-80
2022/01/16 00:46:46;;;;;;;21.98;7.25;;;;;;;3.92;48.65;101845.81;5038979;28;20024;-80
2022/01/16 00:49:13;;;;;;;12.20;6.40;;;;;;;3.95;48.14;101863.47;5039368;28;20076;-81
2022/01/16 00:51:38;;;;;;;14.18;6.43;;;;;;;3.86;48.55;101832.72;5039439;28;20083;-81
2022/01/16 00:54:05;;;;;;;18.75;7.13;;;;;;;3.87;48.41;101751.97;5021262;28;20506;-81
2022/01/16 00:56:30;;;;;;;12.25;6.45;;;;;;;3.82;48.61;101596.97;5038966;28;20022;-81
2022/01/16 00:58:56;;;;;;;14.27;6.50;;;;;;;3.82;48.91;101565.88;5021181;28;20150;-80
2022/01/16 01:01:21;;;;;;;18.10;7.40;;;;;;;3.84;48.67;101573.81;5039305;28;20036;-80
2022/01/16 01:03:47;;;;;;;12.45;6.63;;;;;;;3.82;48.54;101555.22;5018931;28;20372;-80
2022/01/16 01:06:12;;;;;;;21.35;7.10;;;;;;;3.77;48.74;101551.00;5018301;28;20056;-80
2022/01/16 01:08:38;;;;;;;20.08;6.95;;;;;;;3.79;49.05;101597.06;5035990;28;20465;-81
2022/01/16 01:11:08;;;;;;;14.98;6.72;;;;;;;3.78;48.94;101616.63;5001438;28;20041;-80
2022/01/16 01:13:54;;;;;;;15.52;6.72;;;;;;;3.72;48.93;101616.84;5036016;28;20029;-80
2022/01/16 01:16:20;;;;;;;17.45;6.80;;;;;;;3.73;48.96;101629.25;5036085;28;20041;-80
2022/01/16 01:18:48;;;;;;;32.00;11.88;;;;;;;3.71;48.99;101641.72;5036127;28;20036;-80
2022/01/16 01:21:26;;;;;;;25.92;7.20;;;;;;;3.69;49.11;101651.53;5018284;28;20394;-80
2022/01/16 01:23:53;;;;;;;18.88;6.90;;;;;;;3.66;49.32;101680.91;5035887;28;20059;-80
2022/01/16 01:26:24;;;;;;;14.68;6.65;;;;;;;3.64;49.53;101694.25;5035549;28;20451;-80
2022/01/16 01:28:49;;;;;;;19.80;7.05;;;;;;;3.64;49.39;101645.53;5018537;28;20053;-80
2022/01/16 01:31:16;;;;;;;13.52;6.57;;;;;;;3.71;49.46;101636.38;5018664;28;20048;-80
2022/01/16 01:33:41;;;;;;;13.77;6.80;;;;;;;3.65;49.57;101652.56;5035423;28;20022;-80
2022/01/16 01:36:08;;;;;;;12.57;5.93;;;;;;;3.68;49.31;101647.13;5017400;28;20095;-80
2022/01/16 01:38:35;;;;;;;22.92;6.07;;;;;;;3.74;49.75;101652.22;5035663;28;20664;-80
2022/01/16 01:41:01;;;;;;;25.20;9.30;;;;;;;3.67;49.42;101635.63;5001275;28;20029;-80
2022/01/16 01:51:33;;;;;;;16.35;5.57;;;;;;;3.49;49.78;101664.69;5043881;28;20035;-81
2022/01/16 01:54:00;;;;;;;14.00;6.82;;;;;;;3.47;49.92;101663.88;5035420;28;20760;-80
2022/01/16 01:56:26;;;;;;;20.08;6.85;;;;;;;3.55;49.79;101683.06;5017074;28;20033;-80
2022/01/16 01:58:58;;;;;;;21.98;7.63;;;;;;;3.55;49.70;101683.06;5035555;28;20026;-80
2022/01/16 02:01:25;;;;;;;20.17;6.82;;;;;;;3.54;49.61;101684.03;5017887;28;20037;-80
2022/01/16 02:03:52;;;;;;;14.63;6.38;;;;;;;3.61;49.78;101704.13;5035096;28;20478;-80
2022/01/16 02:06:20;;;;;;;27.65;5.82;;;;;;;3.58;49.61;101672.31;5019031;28;20124;-79
2022/01/16 02:08:50;;;;;;;16.20;6.40;;;;;;;3.54;49.85;101676.03;5020531;28;20075;-81
2022/01/16 02:11:16;;;;;;;18.60;6.18;;;;;;;3.43;49.77;101684.38;5003933;28;20040;-79
2022/01/16 02:32:59;;;;;;;11.82;5.75;;;;;;;3.69;49.01;101696.78;5034782;28;20029;-80
2022/01/16 02:35:25;;;;;;;15.30;5.88;;;;;;;3.73;48.82;101687.75;5034648;28;20144;-79
2022/01/16 02:37:51;;;;;;;20.60;6.03;;;;;;;3.69;49.04;101691.44;5000451;28;20025;-80
2022/01/16 02:40:21;;;;;;;11.70;5.75;;;;;;;3.54;49.07;101681.34;5034016;28;20040;-79
2022/01/16 02:42:50;;;;;;;13.57;6.18;;;;;;;3.65;48.92;101681.81;5034834;28;20114;-80
2022/01/16 02:45:27;;;;;;;16.10;5.55;;;;;;;3.66;48.65;101680.91;5034494;28;20427;-79
2022/01/16 02:47:54;;;;;;;13.73;5.95;;;;;;;3.60;48.82;101676.69;5034158;28;20113;-82
2022/01/16 02:50:20;;;;;;;16.08;6.20;;;;;;;3.60;48.63;101681.13;5016314;28;20036;-81
2022/01/16 02:52:46;;;;;;;15.02;5.80;;;;;;;3.55;48.75;101665.31;5033499;28;20468;-81
2022/01/16 02:55:15;;;;;;;16.13;6.72;;;;;;;3.59;49.07;101663.44;5033762;28;20102;-81
2022/01/16 02:57:43;;;;;;;14.40;5.57;;;;;;;3.72;48.98;101681.56;5033817;28;20439;-80
2022/01/16 03:00:09;;;;;;;13.90;4.85;;;;;;;3.75;48.51;101683.25;5033586;28;20459;-80
2022/01/16 03:02:35;;;;;;;25.58;7.20;;;;;;;3.67;48.31;101677.34;5033759;28;20116;-80
2022/01/16 03:05:00;;;;;;;14.82;6.15;;;;;;;3.66;48.44;101681.78;5033258;28;20160;-80
2022/01/16 03:07:26;;;;;;;13.25;6.18;;;;;;;3.74;48.29;101684.16;5015855;28;20120;-80
2022/01/16 03:12:41;;;;;;;11.38;5.35;;;;;;;3.69;48.44;101694.09;5033468;28;20037;-80
2022/01/16 03:15:07;;;;;;;16.73;5.07;;;;;;;3.55;48.24;101689.28;5033731;28;20113;-80
2022/01/16 03:17:52;;;;;;;14.93;5.32;;;;;;;3.55;48.47;101699.03;5033317;28;20053;-80
2022/01/16 03:23:01;;;;;;;15.30;4.53;;;;;;;3.37;48.67;101689.03;5034996;28;20140;-81
2022/01/16 03:25:27;;;;;;;24.05;6.38;;;;;;;3.29;49.26;101684.88;5018824;28;20398;-80
2022/01/16 03:27:52;;;;;;;11.60;5.40;;;;;;;3.35;49.23;101693.56;5050825;28;20097;-80
2022/01/16 03:30:18;;;;;;;12.90;5.32;;;;;;;3.39;49.09;101697.84;5029184;28;20034;-80
2022/01/16 03:32:43;;;;;;;27.02;6.25;;;;;;;3.41;49.15;101706.63;5046123;28;20459;-80
2022/01/16 03:35:09;;;;;;;12.60;6.13;;;;;;;3.49;48.73;101715.22;5051564;28;20013;-80
2022/01/16 03:37:35;;;;;;;16.77;5.10;;;;;;;3.44;48.76;101711.84;5057736;28;20025;-80
2022/01/16 03:40:04;;;;;;;14.95;5.18;;;;;;;3.48;49.08;101724.13;5057728;28;20029;-81
2022/01/16 03:42:32;;;;;;;16.38;5.72;;;;;;;3.56;48.63;101727.38;5042852;28;20056;-80
2022/01/16 03:44:58;;;;;;;13.30;5.35;;;;;;;3.52;48.91;101731.94;5024817;28;20103;-80
2022/01/16 03:47:23;;;;;;;19.90;5.97;;;;;;;3.45;49.02;101718.91;5024214;28;20096;-80
2022/01/16 03:49:49;;;;;;;10.77;5.13;;;;;;;3.57;48.95;101735.31;5014902;28;20056;-80
2022/01/16 03:52:14;;;;;;;17.88;6.80;;;;;;;3.62;48.59;101735.13;5015027;28;20517;-80
2022/01/16 03:54:40;;;;;;;14.57;6.32;;;;;;;3.63;48.78;101739.56;5015130;28;20063;-80
2022/01/16 03:57:05;;;;;;;15.35;5.60;;;;;;;3.70;48.47;101741.09;4998725;28;20053;-80
2022/01/16 03:59:31;;;;;;;14.02;5.70;;;;;;;3.89;47.83;101752.78;5033072;28;20040;-80
2022/01/16 04:01:57;;;;;;;19.50;5.90;;;;;;;3.74;47.74;101748.88;5032206;28;20040;-80
2022/01/16 04:04:22;;;;;;;15.40;6.03;;;;;;;3.86;48.12;101766.19;5015339;28;20034;-80
2022/01/16 04:06:48;;;;;;;16.13;5.85;;;;;;;3.91;47.91;101777.56;5031993;28;20395;-80
2022/01/16 04:09:13;;;;;;;17.20;7.22;;;;;;;3.95;48.24;101768.53;5014474;28;20450;-80
2022/01/16 04:11:46;;;;;;;19.65;5.85;;;;;;;3.96;47.59;101783.59;5032927;28;20380;-80
2022/01/16 04:14:20;;;;;;;12.32;5.65;;;;;;;4.06;47.39;101803.63;5014721;28;20064;-80
2022/01/16 04:16:45;;;;;;;20.65;7.10;;;;;;;4.10;47.37;101794.59;5032978;28;20514;-80
2022/01/16 04:19:11;;;;;;;11.27;5.75;;;;;;;4.19;46.85;101798.75;5032995;28;20025;-80
2022/01/16 04:21:36;;;;;;;16.48;5.45;;;;;;;4.12;47.03;101803.41;5014371;28;20486;-81
2022/01/16 04:24:04;;;;;;;12.95;5.78;;;;;;;4.18;46.77;101802.31;5032627;28;20025;-80
2022/01/16 04:26:34;;;;;;;14.55;5.70;;;;;;;4.07;47.04;101812.47;4999945;28;20056;-80
2022/01/16 04:29:00;;;;;;;16.88;5.07;;;;;;;4.04;46.80;101817.91;5014477;28;20570;-79
2022/01/16 04:31:25;;;;;;;15.70;6.40;;;;;;;4.08;47.09;101823.06;5032341;28;20068;-79
2022/01/16 04:33:51;;;;;;;18.92;6.80;;;;;;;4.07;47.13;101831.09;5014707;28;20029;-79
2022/01/16 04:36:18;;;;;;;15.48;6.45;;;;;;;4.13;46.85;101837.09;5032531;28;20041;-79
2022/01/16 04:38:49;;;;;;;15.45;7.03;;;;;;;4.01;46.83;101820.66;5032507;28;20091;-79
2022/01/16 04:44:00;;;;;;;23.83;7.95;;;;;;;4.00;46.92;101824.28;5021645;28;20036;-80
2022/01/16 04:46:28;;;;;;;18.35;7.45;;;;;;;4.05;46.82;101828.50;5018825;28;20120;-80
2022/01/16 04:48:55;;;;;;;18.13;6.07;;;;;;;4.04;46.93;101826.75;5036606;28;20045;-80
2022/01/16 04:51:24;;;;;;;22.05;11.00;;;;;;;4.06;46.74;101824.06;5018995;28;20112;-80
2022/01/16 04:53:50;;;;;;;15.23;7.47;;;;;;;4.10;46.88;101831.00;5018258;28;20060;-80
2022/01/16 04:56:15;;;;;;;14.27;6.70;;;;;;;4.07;46.77;101842.63;5018534;28;20056;-80
2022/01/16 04:58:42;;;;;;;40.35;16.63;;;;;;;4.04;46.98;101824.09;5018264;28;20045;-81
2022/01/16 05:01:08;;;;;;;90.63;36.33;;;;;;;4.07;47.06;101816.00;5018707;28;20076;-80
2022/01/16 05:03:34;;;;;;;70.38;26.85;;;;;;;4.14;46.65;101816.66;5018150;28;20029;-80
2022/01/16 05:06:01;;;;;;;54.10;21.13;;;;;;;4.21;46.63;101812.88;5041823;28;20024;-81
2022/01/16 05:08:28;;;;;;;18.83;8.18;;;;;;;4.15;46.32;101819.28;5037207;28;20136;-80
2022/01/16 05:10:57;;;;;;;36.40;12.35;;;;;;;4.13;46.67;101820.22;5036892;28;20026;-80
2022/01/16 05:13:30;;;;;;;40.47;15.88;;;;;;;4.17;46.68;101843.19;5035593;28;20033;-80
2022/01/16 05:18:43;;;;;;;13.95;6.28;;;;;;;4.06;46.53;101840.03;5035610;28;20044;-80
2022/01/16 05:21:09;;;;;;;17.17;6.88;;;;;;;4.12;46.75;101835.38;5018611;28;20044;-81
2022/01/16 05:23:35;;;;;;;37.55;17.88;;;;;;;4.07;46.77;101831.97;5035213;28;20021;-80
2022/01/16 05:26:01;;;;;;;35.60;13.90;;;;;;;4.27;46.27;101847.25;5035259;28;20387;-80
2022/01/16 05:28:28;;;;;;;49.63;21.15;;;;;;;4.27;46.56;101829.50;5035580;28;20045;-80
2022/01/16 05:30:54;;;;;;;16.17;7.80;;;;;;;4.30;46.49;101829.38;5017613;28;20029;-80
2022/01/16 05:33:19;;;;;;;19.17;8.02;;;;;;;4.33;46.22;101836.38;5035649;28;20033;-80
2022/01/16 05:35:45;;;;;;;28.02;11.43;;;;;;;4.40;46.21;101836.09;5035023;28;20112;-80
2022/01/16 05:38:12;;;;;;;38.30;12.45;;;;;;;4.42;46.05;101837.84;5035001;28;20021;-80
2022/01/16 05:40:38;;;;;;;31.45;12.65;;;;;;;4.38;45.90;101827.28;5017281;28;20128;-80
2022/01/16 05:43:04;;;;;;;30.20;12.23;;;;;;;4.34;46.15;101836.31;5017337;28;20025;-80
2022/01/16 05:45:30;;;;;;;26.63;11.45;;;;;;;4.42;46.23;101845.81;5035148;28;20022;-80
2022/01/16 05:47:57;;;;;;;19.73;9.32;;;;;;;4.39;46.23;101854.81;5017886;28;20103;-81
2022/01/16 05:50:25;;;;;;;24.05;12.00;;;;;;;4.34;46.66;101857.63;5019592;28;20027;-80
2022/01/16 05:52:50;;;;;;;25.73;11.82;;;;;;;4.41;46.72;101860.94;5036563;28;20017;-80
2022/01/16 05:55:16;;;;;;;34.72;12.50;;;;;;;4.38;46.86;101866.38;5034495;28;20036;-79
2022/01/16 05:57:42;;;;;;;28.02;11.98;;;;;;;4.34;47.02;101864.75;5016741;28;20025;-80
2022/01/16 06:00:10;;;;;;;29.10;12.90;;;;;;;4.32;47.23;101864.81;5016615;28;20481;-80
2022/01/16 06:02:36;;;;;;;41.72;13.27;;;;;;;4.24;47.24;101860.69;5016381;28;20117;-80
2022/01/16 06:05:02;;;;;;;40.58;15.63;;;;;;;4.27;47.44;101858.78;5034682;28;20052;-80
2022/01/16 06:07:28;;;;;;;25.33;12.63;;;;;;;4.30;47.16;101866.66;5016563;28;20025;-80
2022/01/16 06:09:54;;;;;;;29.38;11.93;;;;;;;4.22;47.22;101878.50;5017503;28;20116;-81
2022/01/16 06:12:19;;;;;;;36.45;15.43;;;;;;;4.22;47.67;101883.84;5034815;28;20052;-80
2022/01/16 06:14:45;;;;;;;39.25;15.07;;;;;;;4.16;48.13;101879.56;5033950;28;20033;-78
2022/01/16 06:17:10;;;;;;;36.38;15.48;;;;;;;4.13;48.22;101878.81;5034607;28;20021;-80
2022/01/16 06:19:36;;;;;;;34.70;14.75;;;;;;;4.09;48.84;101888.72;5017401;28;20025;-80
2022/01/16 06:22:01;;;;;;;38.90;15.07;;;;;;;4.13;48.77;101898.31;5034412;28;20159;-79
2022/01/16 06:24:27;;;;;;;41.20;15.80;;;;;;;4.14;49.23;101897.41;5034404;28;20029;-80
2022/01/16 06:26:52;;;;;;;34.80;14.77;;;;;;;4.11;49.02;101892.19;5034018;28;20387;-84
2022/01/16 06:29:20;;;;;;;46.88;14.82;;;;;;;4.05;49.78;101913.69;5015820;28;20029;-84
2022/01/16 06:31:45;;;;;;;37.05;16.40;;;;;;;4.06;49.94;101907.47;5034202;28;20426;-82
2022/01/16 06:34:11;;;;;;;32.22;15.10;;;;;;;4.10;50.23;101922.38;5016199;28;20095;-80
2022/01/16 06:36:38;;;;;;;38.75;15.32;;;;;;;4.16;50.03;101924.00;5034389;28;20033;-81
2022/01/16 06:39:07;;;;;;;38.13;15.30;;;;;;;4.08;49.69;101920.69;5034776;28;20037;-83
2022/01/16 06:41:35;;;;;;;34.15;14.85;;;;;;;3.95;49.85;101898.94;5034381;28;20100;-80
2022/01/16 06:44:01;;;;;;;37.97;16.40;;;;;;;3.99;50.17;101934.31;5001752;28;20518;-80
2022/01/16 06:46:28;;;;;;;43.53;15.57;;;;;;;4.05;50.07;101939.44;5016278;28;20033;-79
2022/01/16 06:48:54;;;;;;;34.25;15.35;;;;;;;4.01;50.18;101938.66;5018223;28;20121;-80
2022/01/16 06:51:21;;;;;;;27.83;14.27;;;;;;;3.93;50.39;101958.47;5014026;28;20116;-80
2022/01/16 06:53:48;;;;;;;32.53;15.88;;;;;;;3.89;51.03;101955.03;4996368;28;20022;-80
2022/01/16 06:56:15;;;;;;;28.55;14.68;;;;;;;3.85;50.71;101969.41;4995436;28;20108;-80
2022/01/16 06:58:41;;;;;;;37.03;15.73;;;;;;;3.85;50.93;101974.72;5012892;28;20029;-79
2022/01/16 07:01:06;;;;;;;37.72;14.63;;;;;;;3.77;50.87;101972.28;5018183;28;20040;-81
2022/01/16 07:03:33;;;;;;;33.08;13.45;;;;;;;3.84;50.61;101972.97;5015354;28;20029;-79
2022/01/16 07:06:00;;;;;;;33.63;13.77;;;;;;;3.79;50.23;101980.22;5016079;28;20438;-80
2022/01/16 07:08:26;;;;;;;33.42;14.35;;;;;;;3.72;50.47;101968.03;5016005;28;20025;-80
2022/01/16 07:10:54;;;;;;;33.50;14.07;;;;;;;3.68;50.53;101966.38;5015593;28;20033;-80
2022/01/16 07:13:21;;;;;;;35.25;13.88;;;;;;;3.73;50.49;101959.97;5033658;28;20014;-80
2022/01/16 07:15:47;;;;;;;27.55;14.20;;;;;;;3.68;50.38;101955.72;4999764;28;20047;-82
2022/01/16 07:18:12;;;;;;;39.38;15.20;;;;;;;3.75;50.20;101965.28;4999506;28;20029;-81
2022/01/16 07:20:38;;;;;;;34.03;13.75;;;;;;;3.83;49.82;101977.41;5015519;28;20059;-82
2022/01/16 07:23:04;;;;;;;41.97;13.40;;;;;;;3.82;50.50;101982.78;5016780;28;20032;-82
2022/01/16 07:25:31;;;;;;;37.80;14.23;;;;;;;3.83;50.41;101976.53;5033422;28;20049;-80
2022/01/16 07:27:56;;;;;;;48.88;15.52;;;;;;;3.88;50.50;102008.34;5042368;28;20079;-81
2022/01/16 07:30:22;;;;;;;38.33;15.45;;;;;;;3.91;50.36;101998.47;5053061;28;20024;-81
2022/01/16 07:32:47;;;;;;;36.13;14.07;;;;;;;3.90;50.32;101994.06;5053899;28;20085;-80
2022/01/16 07:35:13;;;;;;;34.53;13.43;;;;;;;4.03;50.69;102006.06;5056087;28;20017;-83
2022/01/16 07:37:40;;;;;;;30.33;13.00;;;;;;;4.10;50.36;101999.59;5037655;28;20086;-82
2022/01/16 07:40:06;;;;;;;37.75;13.60;;;;;;;4.15;50.23;102000.31;5053934;28;20061;-82
2022/01/16 07:42:33;;;;;;;30.38;15.30;;;;;;;4.23;50.56;101998.28;5035593;28;20087;-83
2022/01/16 07:44:58;;;;;;;39.40;14.90;;;;;;;4.25;50.22;102004.41;5053081;28;20024;-81
2022/01/16 07:47:24;;;;;;;32.75;15.00;;;;;;;4.34;50.33;102006.75;5053628;28;20086;-82
2022/01/16 07:49:50;;;;;;;39.50;16.23;;;;;;;4.31;50.27;101996.22;5053202;28;20027;-81
2022/01/16 07:52:15;;;;;;;39.03;16.02;;;;;;;4.35;50.40;102003.19;5053511;28;20025;-84
2022/01/16 07:54:41;;;;;;;38.58;18.25;;;;;;;4.45;50.38;101997.53;5053588;28;20533;-82
2022/01/16 07:57:06;;;;;;;33.20;15.07;;;;;;;4.47;50.33;101991.22;5035816;28;20171;-82
2022/01/16 07:59:32;;;;;;;42.78;16.15;;;;;;;4.44;50.73;102006.44;5034965;28;20486;-81
2022/01/16 08:01:57;;;;;;;31.85;15.95;;;;;;;4.40;50.87;102001.22;5034633;28;20032;-81
2022/01/16 08:04:23;;;;;;;33.50;14.90;;;;;;;4.40;50.87;101995.91;5034836;28;20059;-79
2022/01/16 08:06:48;;;;;;;31.20;14.88;;;;;;;4.43;51.00;102004.72;5052635;28;20383;-78
2022/01/16 08:09:14;;;;;;;37.80;15.57;;;;;;;4.48;51.13;102002.78;5035071;28;20048;-79
2022/01/16 08:11:39;;;;;;;35.88;14.65;;;;;;;4.62;50.96;102019.13;5018609;28;20106;-79
2022/01/16 08:14:05;;;;;;;44.35;17.00;;;;;;;4.64;50.45;102003.97;5055343;28;20025;-79
2022/01/16 08:16:31;;;;;;;40.40;15.98;;;;;;;4.84;50.32;102014.81;5038725;28;20052;-80
2022/01/16 08:18:58;;;;;;;40.78;16.13;;;;;;;4.86;49.71;102018.31;5038804;28;20059;-80
2022/01/16 08:21:24;;;;;;;47.60;18.77;;;;;;;4.98;49.41;102009.88;5056639;28;20489;-80
2022/01/16 08:23:51;;;;;;;35.95;17.20;;;;;;;5.08;49.24;101983.72;5057041;28;20032;-80
2022/01/16 08:26:17;;;;;;;34.45;17.35;;;;;;;5.12;48.59;101998.69;5031662;28;20025;-80
2022/01/16 08:28:42;;;;;;;45.75;16.65;;;;;;;5.20;48.16;101989.47;5032823;28;20487;-82
2022/01/16 08:31:07;;;;;;;35.10;14.85;;;;;;;5.30;48.07;101980.19;5035521;28;20080;-82
2022/01/16 08:33:33;;;;;;;33.95;15.20;;;;;;;5.46;47.88;101986.69;5036907;28;20079;-81
2022/01/16 08:35:58;;;;;;;39.65;15.88;;;;;;;5.56;47.87;101981.88;5034953;28;20053;-79
2022/01/16 08:38:27;;;;;;;29.13;14.68;;;;;;;5.66;47.40;101977.00;5036478;28;20025;-81
2022/01/16 08:40:53;;;;;;;28.58;12.93;;;;;;;5.64;46.77;101979.75;5035313;28;20049;-81
2022/01/16 08:43:19;;;;;;;25.70;13.60;;;;;;;5.79;46.73;101988.94;5031500;28;20049;-80
2022/01/16 08:45:45;;;;;;;32.35;14.93;;;;;;;5.94;46.71;101980.34;5016488;28;20030;-79
2022/01/16 08:48:11;;;;;;;32.40;14.43;;;;;;;6.10;46.24;101983.28;5015243;28;20036;-79
2022/01/16 08:50:38;;;;;;;38.70;16.08;;;;;;;6.16;46.01;101970.53;5018270;28;20026;-81
2022/01/16 08:53:05;;;;;;;39.03;13.63;;;;;;;6.30;46.00;101970.81;5030541;28;20071;-79
2022/01/16 08:55:34;;;;;;;36.78;17.42;;;;;;;6.48;45.33;101980.72;5032606;28;20033;-82
2022/01/16 08:57:59;;;;;;;37.38;16.50;;;;;;;6.54;45.28;101967.09;5031307;28;20041;-82
2022/01/16 09:00:26;;;;;;;36.00;14.05;;;;;;;6.63;44.73;101975.66;5039205;28;20026;-81
2022/01/16 09:02:51;;;;;;;25.05;12.15;;;;;;;6.66;43.50;101951.47;5019524;28;20045;-80
2022/01/16 09:05:17;;;;;;;21.55;11.13;;;;;;;6.80;42.91;101973.97;5030595;28;20030;-82
2022/01/16 09:07:42;;;;;;;39.08;16.38;;;;;;;6.73;43.71;101974.34;5025980;28;20034;-81
2022/01/16 09:10:09;;;;;;;31.92;14.38;;;;;;;6.72;43.82;101969.91;5025211;28;20053;-83
2022/01/16 09:12:36;;;;;;;32.42;14.20;;;;;;;6.77;43.87;101978.59;5018716;28;20030;-81
2022/01/16 09:15:07;;;;;;;22.23;11.10;;;;;;;6.86;42.40;101970.16;5014238;28;20032;-82
2022/01/16 09:17:32;;;;;;;28.48;11.02;;;;;;;6.86;40.91;101955.00;4997895;28;20034;-81
2022/01/16 09:19:58;;;;;;;28.85;10.73;;;;;;;7.02;40.81;101960.50;5018373;28;20072;-82
2022/01/16 09:22:23;;;;;;;21.25;7.90;;;;;;;7.15;40.49;101948.31;5016306;28;20025;-81
2022/01/16 09:24:49;;;;;;;25.63;12.07;;;;;;;7.15;40.46;101940.31;5019905;28;20026;-83
2022/01/16 09:27:15;;;;;;;39.30;12.88;;;;;;;7.38;41.49;101928.50;5021631;28;20103;-82
2022/01/16 09:29:42;;;;;;;23.67;8.35;;;;;;;7.28;38.72;101933.41;5035593;28;20494;-81
2022/01/16 09:32:08;;;;;;;19.80;7.75;;;;;;;7.38;39.00;101940.09;5055759;28;20021;-83
2022/01/16 09:34:33;;;;;;;17.88;7.05;;;;;;;7.52;39.00;101929.56;5039039;28;20499;-81
2022/01/16 09:36:59;;;;;;;21.80;10.25;;;;;;;7.63;39.95;101929.94;5059474;28;20039;-81
2022/01/16 09:39:24;;;;;;;37.42;13.95;;;;;;;7.62;40.70;101930.88;5061912;28;20082;-81
2022/01/16 09:41:50;;;;;;;34.15;15.20;;;;;;;7.61;41.11;101934.47;5040144;28;20048;-82
2022/01/16 09:44:17;;;;;;;37.40;15.10;;;;;;;7.61;41.10;101923.78;5055470;28;20390;-81
2022/01/16 09:46:42;;;;;;;37.78;14.60;;;;;;;7.77;40.58;101929.25;5020806;28;20443;-81
2022/01/16 09:49:08;;;;;;;24.83;13.07;;;;;;;7.78;40.40;101931.00;5037345;28;20083;-82
2022/01/16 09:51:33;;;;;;;31.42;13.85;;;;;;;7.89;40.83;101923.28;5037244;28;20048;-82
2022/01/16 09:53:59;;;;;;;37.33;12.65;;;;;;;7.96;40.42;101926.53;5037587;28;20033;-82
2022/01/16 09:56:25;;;;;;;33.75;14.18;;;;;;;8.04;40.14;101927.03;5037040;28;20171;-83
2022/01/16 09:58:51;;;;;;;34.17;12.05;;;;;;;8.02;39.90;101919.06;5055150;28;20021;-82
2022/01/16 10:01:16;;;;;;;36.58;12.90;;;;;;;8.03;39.43;101914.56;5054401;28;20336;-83
2022/01/16 10:03:44;;;;;;;32.88;12.15;;;;;;;7.98;39.65;101903.25;5054639;28;20033;-82
2022/01/16 10:06:19;;;;;;;23.98;12.35;;;;;;;8.05;39.72;101907.31;5062144;28;20032;-81
2022/01/16 10:08:45;;;;;;;28.52;12.57;;;;;;;7.87;40.07;101913.59;5058695;28;20169;-81
2022/01/16 10:11:41;;;;;;;20.33;11.23;;;;;;;7.92;39.79;101906.22;5058727;28;20119;-81
2022/01/16 10:14:22;;;;;;;25.05;12.60;;;;;;;7.94;39.82;101905.19;5054477;28;20037;-81
2022/01/16 10:16:49;;;;;;;33.03;13.85;;;;;;;8.08;40.00;101901.81;5037548;28;20028;-83
2022/01/16 10:19:24;;;;;;;27.95;13.18;;;;;;;8.08;40.63;101891.09;5056121;28;20094;-82
2022/01/16 10:21:51;;;;;;;21.40;10.35;;;;;;;8.17;39.44;101890.63;5037010;28;20031;-81
2022/01/16 10:24:25;;;;;;;20.85;11.02;;;;;;;8.28;39.01;101888.31;5055365;28;20159;-82
2022/01/16 10:27:17;;;;;;;26.10;11.23;;;;;;;8.28;39.34;101882.94;5055550;28;20037;-80
2022/01/16 10:29:52;;;;;;;33.50;12.55;;;;;;;8.35;39.17;101888.84;5056009;28;20412;-82
2022/01/16 10:32:26;;;;;;;26.58;11.13;;;;;;;8.43;38.64;101887.50;5037177;28;20033;-84
2022/01/16 10:35:22;;;;;;;25.02;11.32;;;;;;;8.44;38.86;101883.84;5053650;28;20045;-82
2022/01/16 10:37:57;;;;;;;26.33;11.82;;;;;;;8.48;38.29;101872.03;5057455;28;20093;-82
2022/01/16 10:40:31;;;;;;;35.10;14.80;;;;;;;8.67;38.03;101879.97;5037551;28;20021;-82
2022/01/16 10:42:58;;;;;;;35.65;17.65;;;;;;;8.72;38.44;101862.69;5037040;28;20028;-85
2022/01/16 10:45:29;;;;;;;33.50;13.38;;;;;;;8.78;37.56;101872.19;5054231;28;20029;-81
2022/01/16 10:47:58;;;;;;;32.42;11.98;;;;;;;8.79;37.79;101863.22;5019338;28;20660;-82
2022/01/16 10:50:25;;;;;;;23.33;12.68;;;;;;;8.77;38.20;101871.31;5054496;28;20043;-82
2022/01/16 10:53:11;;;;;;;23.08;11.30;;;;;;;8.87;37.44;101870.88;5053169;28;20170;-82
2022/01/16 10:55:47;;;;;;;18.85;10.25;;;;;;;8.64;37.36;101864.91;5054478;28;20109;-83
2022/01/16 10:58:21;;;;;;;20.83;11.48;;;;;;;8.52;37.88;101853.97;5053437;28;20116;-82
2022/01/16 11:01:00;;;;;;;28.17;10.43;;;;;;;8.59;37.77;101861.59;5054090;28;20098;-83
2022/01/16 11:03:28;;;;;;;21.65;10.73;;;;;;;8.60;37.43;101849.94;5035821;28;20036;-83
2022/01/16 11:05:54;;;;;;;23.08;10.32;;;;;;;8.35;38.00;101851.31;5035447;28;20021;-81
2022/01/16 11:08:26;;;;;;;17.70;9.68;;;;;;;8.52;37.68;101852.16;5035578;28;20112;-82
2022/01/16 11:10:56;;;;;;;30.03;15.97;;;;;;;8.43;37.69;101833.88;5035492;28;20497;-82
2022/01/16 11:13:27;;;;;;;24.17;11.05;;;;;;;8.62;37.54;101839.97;5052926;28;20466;-81
2022/01/16 11:15:54;;;;;;;20.00;10.25;;;;;;;8.77;37.26;101843.66;5035884;28;20112;-81
2022/01/16 11:18:22;;;;;;;20.65;11.15;;;;;;;8.93;37.34;101827.59;5053752;28;20028;-82
2022/01/16 11:21:34;;;;;;;27.13;11.43;;;;;;;8.82;36.89;101832.66;5035660;28;20032;-81
2022/01/16 11:26:13;;;;;;;19.60;10.18;;;;;;;9.27;36.94;101827.41;5053196;28;20040;-82
2022/01/16 11:28:40;;;;;;;24.08;11.43;;;;;;;9.29;36.04;101815.63;5018449;28;20052;-83
2022/01/16 11:31:09;;;;;;;22.17;11.45;;;;;;;9.18;35.66;101827.94;5053563;28;20051;-82
2022/01/16 11:33:36;;;;;;;27.85;11.80;;;;;;;9.33;36.34;101816.31;5035891;28;20017;-82
2022/01/16 11:36:11;;;;;;;19.17;9.75;;;;;;;9.40;36.31;101817.72;5053647;28;20025;-83
2022/01/16 11:38:58;;;;;;;23.88;11.02;;;;;;;9.31;36.03;101823.59;5053521;28;20025;-82
2022/01/16 11:41:36;;;;;;;32.05;12.45;;;;;;;9.56;35.78;101823.06;5049186;28;20028;-81
2022/01/16 11:44:08;;;;;;;30.73;10.98;;;;;;;9.69;35.73;101824.09;5036886;28;20025;-81
2022/01/16 11:46:40;;;;;;;27.70;11.55;;;;;;;9.55;35.62;101816.81;5065033;28;20017;-82
2022/01/16 11:49:08;;;;;;;27.65;11.05;;;;;;;9.40;35.60;101819.53;5066306;28;20060;-81
2022/01/16 11:51:34;;;;;;;29.73;13.63;;;;;;;9.37;35.88;101823.25;5053713;28;20028;-82
2022/01/16 11:54:24;;;;;;;27.92;12.25;;;;;;;9.46;35.79;101822.72;5053578;28;20032;-82
2022/01/16 11:56:53;;;;;;;27.20;11.77;;;;;;;9.40;36.08;101823.06;5035142;28;20061;-82
2022/01/16 11:59:39;;;;;;;24.20;11.10;;;;;;;9.37;36.15;101828.63;5053569;28;20025;-82
2022/01/16 12:02:07;;;;;;;24.90;11.65;;;;;;;9.33;36.00;101824.38;5053595;28;20086;-82
2022/01/16 12:04:33;;;;;;;20.83;11.10;;;;;;;9.27;36.09;101816.66;5035035;28;20094;-82
2022/01/16 12:07:01;;;;;;;28.60;11.32;;;;;;;9.22;36.29;101819.63;5052850;28;20033;-83